createdAt,value
2018-04-02T00:00:18.371Z,17.93
2018-04-02T00:02:47.418Z,15.80
2018-04-02T00:05:15.643Z,17.90
2018-04-02T00:07:44.051Z,16.77
2018-04-02T00:10:12.351Z,16.67
2018-04-02T00:12:40.608Z,17.20
2018-04-02T00:15:08.857Z,17.00
2018-04-02T00:17:37.373Z,18.63
2018-04-02T00:20:05.644Z,18.50
2018-04-02T00:22:33.901Z,16.73
2018-04-02T00:25:02.205Z,17.30
2018-04-02T00:27:30.415Z,17.67
2018-04-02T00:29:59.910Z,17.57
2018-04-02T00:32:28.158Z,18.17
2018-04-02T00:34:56.468Z,17.57
2018-04-02T00:37:25.645Z,19.00
2018-04-02T00:39:53.955Z,17.47
2018-04-02T00:42:22.330Z,19.57
2018-04-02T00:44:52.101Z,19.60
2018-04-02T00:47:20.598Z,19.57
2018-04-02T00:49:49.537Z,18.30
2018-04-02T00:52:18.580Z,18.57
2018-04-02T00:54:46.776Z,18.10
2018-04-02T00:57:15.134Z,19.50
2018-04-02T00:59:43.348Z,19.10
2018-04-02T01:02:11.551Z,18.53
2018-04-02T01:04:39.866Z,18.90
2018-04-02T01:07:08.060Z,19.43
2018-04-02T01:09:36.993Z,19.53
2018-04-02T01:12:05.228Z,19.23
2018-04-02T01:14:33.466Z,20.53
2018-04-02T01:17:01.682Z,20.03
2018-04-02T01:19:29.933Z,20.57
2018-04-02T01:21:59.802Z,21.43
2018-04-02T01:24:28.128Z,22.23
2018-04-02T01:26:57.233Z,21.23
2018-04-02T01:29:25.664Z,22.67
2018-04-02T01:31:53.956Z,22.20
2018-04-02T01:34:22.221Z,21.93
2018-04-02T01:36:51.227Z,21.90
2018-04-02T01:39:19.523Z,22.77
2018-04-02T01:41:47.730Z,23.47
2018-04-02T01:44:17.385Z,23.83
2018-04-02T01:46:45.636Z,23.20
2018-04-02T01:49:13.879Z,23.60
2018-04-02T01:51:42.253Z,23.90
2018-04-02T01:54:10.623Z,23.67
2018-04-02T01:56:38.843Z,23.80
2018-04-02T01:59:07.288Z,24.00
2018-04-02T02:01:35.530Z,24.40
2018-04-02T02:04:04.551Z,24.70
2018-04-02T02:06:32.853Z,23.63
2018-04-02T02:09:01.047Z,23.83
2018-04-02T02:11:29.438Z,24.33
2018-04-02T02:13:57.693Z,24.07
2018-04-02T02:16:29.336Z,24.87
2018-04-02T02:18:57.795Z,23.97
2018-04-02T02:21:26.783Z,25.20
2018-04-02T02:23:55.760Z,24.90
2018-04-02T02:26:24.781Z,23.97
2018-04-02T02:28:54.150Z,23.93
2018-04-02T02:31:23.194Z,25.60
2018-04-02T02:33:51.492Z,23.60
2018-04-02T02:36:19.724Z,24.50
2018-04-02T02:38:49.060Z,24.27
2018-04-02T02:41:17.525Z,23.80
2018-04-02T02:43:45.786Z,23.27
2018-04-02T02:46:14.046Z,23.77
2018-04-02T02:48:43.068Z,24.00
2018-04-02T02:51:11.280Z,23.47
2018-04-02T02:53:39.479Z,22.83
2018-04-02T02:56:09.737Z,23.57
2018-04-02T02:58:38.751Z,24.47
2018-04-02T03:01:07.165Z,23.00
2018-04-02T03:03:35.682Z,23.37
2018-04-02T03:06:04.823Z,23.17
2018-04-02T03:08:33.934Z,23.60
2018-04-02T03:11:02.189Z,22.97
2018-04-02T03:13:30.473Z,24.33
2018-04-02T03:15:58.695Z,22.67
2018-04-02T03:18:27.676Z,23.83
2018-04-02T03:20:56.687Z,22.03
2018-04-02T03:23:25.704Z,23.37
2018-04-02T03:25:53.935Z,23.10
2018-04-02T03:28:22.161Z,23.33
2018-04-02T03:30:51.118Z,23.03
2018-04-02T03:33:20.292Z,23.33
2018-04-02T03:35:48.485Z,23.53
2018-04-02T03:38:16.750Z,23.60
2018-04-02T03:40:45.020Z,22.23
2018-04-02T03:43:13.215Z,22.30
2018-04-02T03:45:41.521Z,22.87
2018-04-02T03:48:09.793Z,22.40
2018-04-02T03:50:38.045Z,22.33
2018-04-02T03:53:06.303Z,21.40
2018-04-02T03:55:34.817Z,21.90
2018-04-02T03:58:03.077Z,21.07
2018-04-02T04:00:31.435Z,23.30
2018-04-02T04:02:59.851Z,22.20
2018-04-02T04:05:28.027Z,21.90
2018-04-02T04:07:57.720Z,21.33
2018-04-02T04:10:27.478Z,20.70
2018-04-02T04:12:55.796Z,22.00
2018-04-02T04:15:24.176Z,22.60
2018-04-02T04:17:55.927Z,22.17
2018-04-02T04:20:24.320Z,22.53
2018-04-02T04:22:52.524Z,21.87
2018-04-02T04:25:20.840Z,22.17
2018-04-02T04:27:49.208Z,22.37
2018-04-02T04:30:18.206Z,22.03
2018-04-02T04:32:46.612Z,21.70
2018-04-02T04:35:14.838Z,21.77
2018-04-02T04:37:43.883Z,20.87
2018-04-02T04:40:12.191Z,21.07
2018-04-02T04:42:40.391Z,19.87
2018-04-02T04:45:08.726Z,21.47
2018-04-02T04:47:37.805Z,20.77
2018-04-02T04:50:06.036Z,19.63
2018-04-02T04:52:34.264Z,19.87
2018-04-02T04:55:02.666Z,20.80
2018-04-02T04:57:30.918Z,21.13
2018-04-02T04:59:59.161Z,20.60
2018-04-02T05:02:27.488Z,21.73
2018-04-02T05:04:55.712Z,21.73
2018-04-02T05:07:24.707Z,21.73
2018-04-02T05:09:54.455Z,20.90
2018-04-02T05:12:22.720Z,21.67
2018-04-02T05:14:50.973Z,20.93
2018-04-02T05:17:20.119Z,21.00
2018-04-02T05:19:48.418Z,20.73
2018-04-02T05:22:16.711Z,19.87
2018-04-02T05:24:45.733Z,20.90
2018-04-02T05:27:14.111Z,19.77
2018-04-02T05:29:43.089Z,20.23
2018-04-02T05:32:12.109Z,20.50
2018-04-02T05:34:41.245Z,20.90
2018-04-02T05:37:09.925Z,20.63
2018-04-02T05:39:38.662Z,19.87
2018-04-02T05:42:06.995Z,20.63
2018-04-02T05:44:35.245Z,19.57
2018-04-02T05:47:04.224Z,20.03
2018-04-02T05:49:32.486Z,19.27
2018-04-02T05:52:01.648Z,19.80
2018-04-02T05:54:29.887Z,20.17
2018-04-02T05:56:58.134Z,18.80
2018-04-02T05:59:27.153Z,17.47
2018-04-02T06:01:55.473Z,18.90
2018-04-02T06:04:23.911Z,18.77
2018-04-02T06:06:52.956Z,17.30
2018-04-02T06:09:21.190Z,17.40
2018-04-02T06:11:50.206Z,17.73
2018-04-02T06:14:18.454Z,17.83
2018-04-02T06:16:46.699Z,17.70
2018-04-02T06:19:14.911Z,17.13
2018-04-02T06:21:43.971Z,17.83
2018-04-02T06:24:12.230Z,17.50
2018-04-02T06:26:40.482Z,16.13
2018-04-02T06:29:08.700Z,18.53
2018-04-02T06:31:37.013Z,16.87
2018-04-02T06:34:05.994Z,17.83
2018-04-02T06:36:34.780Z,18.07
2018-04-02T06:39:03.060Z,18.73
2018-04-02T06:41:31.443Z,18.87
2018-04-02T06:43:59.800Z,19.00
2018-04-02T06:46:28.050Z,19.23
2018-04-02T06:48:56.298Z,19.30
2018-04-02T06:51:25.304Z,18.40
2018-04-02T06:53:53.536Z,18.80
2018-04-02T06:56:22.530Z,18.47
2018-04-02T06:58:51.564Z,17.87
2018-04-02T07:01:19.920Z,18.50
2018-04-02T07:03:54.610Z,18.03
2018-04-02T07:06:23.943Z,17.20
2018-04-02T07:08:52.207Z,17.80
2018-04-02T07:11:20.497Z,16.77
2018-04-02T07:13:48.748Z,16.50
2018-04-02T07:16:16.963Z,16.10
2018-04-02T07:18:45.311Z,15.27
2018-04-02T07:21:13.566Z,15.57
2018-04-02T07:23:41.815Z,14.97
2018-04-02T07:26:10.112Z,14.90
2018-04-02T07:28:38.413Z,15.47
2018-04-02T07:31:06.706Z,13.67
2018-04-02T07:33:34.962Z,14.10
2018-04-02T07:36:03.187Z,15.10
2018-04-02T07:38:32.195Z,14.10
2018-04-02T07:41:01.200Z,13.73
2018-04-02T07:43:29.473Z,14.17
2018-04-02T07:45:57.829Z,14.00
2018-04-02T07:48:26.949Z,13.23
2018-04-02T07:50:55.299Z,13.33
2018-04-02T07:53:24.533Z,12.60
2018-04-02T07:55:52.809Z,12.77
2018-04-02T07:58:21.148Z,11.90
2018-04-02T08:00:50.325Z,11.63
2018-04-02T08:03:18.628Z,11.77
2018-04-02T08:05:47.023Z,11.50
2018-04-02T08:08:16.021Z,11.60
2018-04-02T08:10:44.365Z,10.93
2018-04-02T08:13:12.621Z,11.67
2018-04-02T08:15:41.060Z,10.63
2018-04-02T08:18:09.378Z,10.20
2018-04-02T08:20:37.870Z,11.23
2018-04-02T08:23:06.152Z,9.93
2018-04-02T08:25:34.525Z,10.00
2018-04-02T08:28:02.847Z,9.67
2018-04-02T08:30:33.863Z,9.53
2018-04-02T08:33:02.123Z,9.40
2018-04-02T08:35:30.406Z,8.90
2018-04-02T08:37:58.660Z,8.37
2018-04-02T08:40:26.933Z,7.93
2018-04-02T08:42:55.254Z,8.03
2018-04-02T08:45:23.736Z,7.33
2018-04-02T08:47:52.038Z,7.87
2018-04-02T08:50:20.301Z,8.27
2018-04-02T08:52:48.662Z,6.70
2018-04-02T08:55:16.987Z,7.23
2018-04-02T08:57:46.038Z,6.37
2018-04-02T09:00:14.393Z,7.30
2018-04-02T09:02:42.866Z,5.57
2018-04-02T09:05:11.178Z,6.53
2018-04-02T09:07:39.430Z,6.13
2018-04-02T09:10:07.674Z,6.10
2018-04-02T09:12:36.967Z,5.97
2018-04-02T09:15:06.036Z,5.40
2018-04-02T09:17:35.805Z,5.50
2018-04-02T09:20:04.081Z,5.50
2018-04-02T09:22:32.358Z,5.70
2018-04-02T09:25:02.412Z,5.83
2018-04-02T09:27:33.361Z,5.70
2018-04-02T09:30:01.686Z,5.10
2018-04-02T09:32:30.051Z,4.97
2018-04-02T09:34:58.301Z,5.20
2018-04-02T09:37:27.438Z,5.27
2018-04-02T09:39:55.652Z,5.17
2018-04-02T09:42:23.931Z,5.30
2018-04-02T09:44:52.158Z,5.57
2018-04-02T09:47:21.260Z,5.30
2018-04-02T09:49:49.627Z,5.43
2018-04-02T09:52:18.052Z,4.97
2018-04-02T09:54:46.299Z,4.90
2018-04-02T09:57:14.570Z,5.57
2018-04-02T09:59:42.865Z,4.80
2018-04-02T10:02:14.097Z,4.20
2018-04-02T10:04:43.470Z,4.40
2018-04-02T10:07:11.717Z,4.10
2018-04-02T10:09:39.974Z,4.53
2018-04-02T10:12:08.830Z,4.33
2018-04-02T10:14:37.294Z,4.10
2018-04-02T10:17:05.547Z,3.97
2018-04-02T10:19:33.776Z,4.00
2018-04-02T10:22:02.815Z,4.13
2018-04-02T10:24:31.062Z,3.80
2018-04-02T10:26:59.420Z,3.40
2018-04-02T10:29:27.861Z,3.67
2018-04-02T10:31:56.194Z,3.33
2018-04-02T10:34:25.300Z,3.83
2018-04-02T10:36:53.705Z,3.67
2018-04-02T10:39:21.965Z,3.57
2018-04-02T10:41:50.182Z,4.07
2018-04-02T10:44:19.263Z,3.20
2018-04-02T10:46:47.540Z,3.63
2018-04-02T10:49:15.829Z,3.03
2018-04-02T10:51:44.910Z,3.43
2018-04-02T10:54:13.980Z,3.50
2018-04-02T10:56:42.198Z,3.40
2018-04-02T10:59:10.472Z,3.43
2018-04-02T11:01:38.718Z,3.67
2018-04-02T11:04:06.923Z,3.67
2018-04-02T11:06:35.709Z,3.17
2018-04-02T11:09:03.983Z,3.53
2018-04-02T11:11:32.234Z,3.30
2018-04-02T11:14:00.471Z,3.60
2018-04-02T11:16:29.485Z,3.63
2018-04-02T11:18:58.485Z,4.00
2018-04-02T11:21:26.747Z,3.80
2018-04-02T11:23:55.765Z,3.70
2018-04-02T11:26:24.037Z,3.77
2018-04-02T11:28:53.262Z,3.70
2018-04-02T11:31:21.519Z,3.67
2018-04-02T11:33:49.821Z,3.93
2018-04-02T11:36:18.127Z,3.80
2018-04-02T11:38:46.343Z,4.20
2018-04-02T11:41:16.212Z,4.00
2018-04-02T11:43:45.251Z,4.13
2018-04-02T11:46:14.321Z,3.77
2018-04-02T11:48:42.621Z,3.90
2018-04-02T11:51:11.632Z,3.83
2018-04-02T11:53:39.895Z,3.80
2018-04-02T11:56:08.201Z,3.93
2018-04-02T11:58:36.495Z,3.67
2018-04-02T12:01:04.874Z,3.17
2018-04-02T12:03:33.087Z,3.57
2018-04-02T12:06:01.309Z,3.63
2018-04-02T12:08:29.611Z,3.10
2018-04-02T12:10:57.876Z,3.27
2018-04-02T12:13:26.220Z,3.20
2018-04-02T12:15:55.209Z,2.47
2018-04-02T12:18:24.230Z,2.50
2018-04-02T12:20:52.498Z,2.67
2018-04-02T12:23:21.516Z,2.60
2018-04-02T12:25:50.998Z,2.60
2018-04-02T12:28:19.244Z,2.30
2018-04-02T12:30:48.207Z,2.50
2018-04-02T12:33:16.484Z,2.47
2018-04-02T12:35:44.772Z,2.20
2018-04-02T12:38:13.079Z,2.47
2018-04-02T12:40:41.362Z,2.40
2018-04-02T12:43:10.456Z,2.40
2018-04-02T12:45:39.513Z,2.30
2018-04-02T12:48:07.828Z,2.30
2018-04-02T12:50:36.887Z,1.90
2018-04-02T12:53:05.112Z,2.00
2018-04-02T12:55:34.122Z,2.07
2018-04-02T12:58:02.426Z,1.63
2018-04-02T13:00:30.695Z,2.53
2018-04-02T13:02:58.981Z,1.97
2018-04-02T13:05:27.199Z,2.03
2018-04-02T13:07:55.402Z,1.80
2018-04-02T13:10:24.438Z,1.97
2018-04-02T13:12:52.674Z,2.00
2018-04-02T13:15:21.934Z,1.80
2018-04-02T13:17:50.254Z,1.87
2018-04-02T13:20:18.552Z,2.00
2018-04-02T13:22:46.807Z,2.00
2018-04-02T13:25:15.076Z,2.00
2018-04-02T13:27:43.455Z,1.90
2018-04-02T13:30:11.689Z,1.73
2018-04-02T13:32:40.076Z,2.00
2018-04-02T13:35:09.150Z,2.10
2018-04-02T13:37:37.453Z,2.10
2018-04-02T13:40:05.895Z,2.10
2018-04-02T13:42:34.148Z,2.13
2018-04-02T13:45:02.429Z,2.10
2018-04-02T13:47:30.691Z,2.20
2018-04-02T13:49:59.721Z,2.07
2018-04-02T13:52:27.987Z,2.20
2018-04-02T13:54:57.058Z,1.93
2018-04-02T13:57:25.322Z,2.00
2018-04-02T13:59:53.617Z,2.00
2018-04-02T14:02:21.938Z,2.20
2018-04-02T14:04:50.305Z,1.90
2018-04-02T14:07:18.678Z,2.17
2018-04-02T14:09:46.941Z,1.90
2018-04-02T14:12:15.988Z,1.90
2018-04-02T14:14:44.296Z,2.00
2018-04-02T14:17:12.535Z,1.83
2018-04-02T14:19:40.779Z,1.90
2018-04-02T14:22:09.050Z,1.87
2018-04-02T14:24:38.075Z,1.87
2018-04-02T14:27:06.329Z,1.80
2018-04-02T14:29:34.632Z,1.60
2018-04-02T14:32:02.874Z,1.70
2018-04-02T14:34:31.874Z,1.80
2018-04-02T14:37:00.124Z,1.77
2018-04-02T14:39:28.416Z,1.60
2018-04-02T14:41:57.533Z,1.97
2018-04-02T14:44:25.805Z,1.40
2018-04-02T14:46:54.905Z,1.50
2018-04-02T14:49:23.216Z,1.70
2018-04-02T14:51:52.378Z,1.90
2018-04-02T14:54:20.671Z,1.87
2018-04-02T14:56:48.906Z,2.30
2018-04-02T14:59:17.246Z,2.10
2018-04-02T15:01:45.736Z,1.87
2018-04-02T15:04:14.062Z,1.87
2018-04-02T15:06:43.229Z,2.00
2018-04-02T15:09:11.482Z,1.80
2018-04-02T15:11:39.710Z,1.80
2018-04-02T15:14:08.740Z,1.73
2018-04-02T15:16:37.029Z,1.80
2018-04-02T15:19:05.305Z,1.80
2018-04-02T15:21:33.598Z,1.87
2018-04-02T15:24:01.919Z,1.80
2018-04-02T15:26:30.166Z,1.97
2018-04-02T15:28:59.175Z,1.90
2018-04-02T15:31:27.449Z,1.90
2018-04-02T15:33:55.774Z,1.90
2018-04-02T15:36:24.830Z,1.97
2018-04-02T15:38:53.876Z,2.00
2018-04-02T15:41:22.168Z,2.10
2018-04-02T15:43:50.396Z,2.30
2018-04-02T15:46:19.387Z,2.20
2018-04-02T15:48:48.395Z,2.13
2018-04-02T15:51:17.473Z,1.87
2018-04-02T15:53:46.582Z,2.10
2018-04-02T15:56:14.828Z,2.00
2018-04-02T15:58:43.572Z,1.87
2018-04-02T16:01:11.821Z,2.23
2018-04-02T16:03:40.165Z,2.27
2018-04-02T16:06:08.480Z,2.10
2018-04-02T16:08:37.039Z,2.40
2018-04-02T16:11:05.248Z,2.50
2018-04-02T16:13:34.244Z,2.43
2018-04-02T16:16:02.544Z,2.90
2018-04-02T16:18:30.766Z,2.80
2018-04-02T16:20:59.000Z,3.10
2018-04-02T16:23:27.244Z,3.00
2018-04-02T16:25:55.487Z,2.90
2018-04-02T16:28:23.852Z,3.13
2018-04-02T16:30:52.086Z,3.30
2018-04-02T16:33:21.100Z,3.60
2018-04-02T16:35:49.423Z,3.73
2018-04-02T16:38:18.780Z,3.60
2018-04-02T16:40:47.053Z,3.80
2018-04-02T16:43:15.314Z,3.53
2018-04-02T16:45:44.396Z,3.73
2018-04-02T16:48:13.514Z,4.07
2018-04-02T16:50:42.558Z,4.47
2018-04-02T16:53:11.535Z,4.53
2018-04-02T16:55:40.352Z,4.97
2018-04-02T16:58:08.634Z,5.00
2018-04-02T17:00:36.875Z,4.90
2018-04-02T17:03:05.220Z,5.73
2018-04-02T17:05:34.200Z,5.60
2018-04-02T17:08:03.030Z,5.70
2018-04-02T17:10:31.259Z,5.50
2018-04-02T17:12:59.507Z,5.70
2018-04-02T17:15:27.809Z,6.13
2018-04-02T17:17:56.857Z,5.97
2018-04-02T17:20:25.118Z,5.67
2018-04-02T17:22:54.134Z,5.97
2018-04-02T17:25:22.387Z,6.03
2018-04-02T17:27:51.412Z,5.40
2018-04-02T17:30:19.668Z,5.43
2018-04-02T17:32:48.647Z,5.80
2018-04-02T17:35:18.665Z,4.90
2018-04-02T17:37:47.695Z,5.17
2018-04-02T17:40:15.937Z,5.50
2018-04-02T17:42:45.235Z,5.40
2018-04-02T17:45:14.313Z,5.20
2018-04-02T17:47:43.401Z,5.30
2018-04-02T17:50:11.777Z,5.20
2018-04-02T17:52:40.019Z,5.10
2018-04-02T17:55:08.310Z,5.77
2018-04-02T17:57:36.596Z,5.70
2018-04-02T18:00:06.721Z,5.90
2018-04-02T18:02:35.020Z,5.13
2018-04-02T18:05:04.247Z,5.90
2018-04-02T18:07:32.539Z,6.80
2018-04-02T18:10:01.597Z,6.67
2018-04-02T18:12:29.830Z,7.23
2018-04-02T18:14:58.114Z,7.37
2018-04-02T18:17:26.361Z,8.03
2018-04-02T18:19:54.619Z,8.20
2018-04-02T18:22:23.668Z,10.87
2018-04-02T18:24:51.978Z,9.33
2018-04-02T18:27:20.925Z,10.13
2018-04-02T18:29:49.240Z,10.20
2018-04-02T18:32:17.628Z,9.90
2018-04-02T18:34:45.905Z,11.13
2018-04-02T18:37:14.209Z,10.83
2018-04-02T18:39:43.358Z,11.70
2018-04-02T18:42:12.408Z,11.23
2018-04-02T18:44:40.807Z,11.83
2018-04-02T18:47:09.864Z,11.93
2018-04-02T18:49:38.110Z,12.20
2018-04-02T18:52:06.494Z,11.30
2018-04-02T18:54:34.814Z,12.30
2018-04-02T18:57:03.043Z,12.67
2018-04-02T18:59:31.254Z,12.97
2018-04-02T19:01:59.504Z,12.57
2018-04-02T19:04:28.601Z,13.33
2018-04-02T19:06:57.634Z,13.53
2018-04-02T19:09:25.949Z,13.83
2018-04-02T19:11:54.374Z,13.97
2018-04-02T19:14:22.686Z,14.50
2018-04-02T19:16:50.984Z,13.93
2018-04-02T19:19:20.000Z,14.40
2018-04-02T19:21:48.314Z,13.73
2018-04-02T19:24:16.538Z,14.30
2018-04-02T19:26:47.516Z,13.43
2018-04-02T19:29:15.714Z,14.37
2018-04-02T19:31:43.959Z,13.47
2018-04-02T19:34:12.198Z,14.23
2018-04-02T19:36:40.468Z,14.20
2018-04-02T19:39:08.846Z,13.70
2018-04-02T19:41:37.196Z,14.63
2018-04-02T19:44:05.454Z,14.00
2018-04-02T19:46:33.960Z,13.53
2018-04-02T19:49:03.005Z,12.87
2018-04-02T19:51:31.249Z,14.13
2018-04-02T19:54:00.325Z,13.70
2018-04-02T19:56:29.361Z,13.27
2018-04-02T19:58:57.679Z,12.23
2018-04-02T20:01:26.755Z,12.23
2018-04-02T20:03:54.975Z,13.77
2018-04-02T20:06:23.247Z,17.87
2018-04-02T20:08:51.525Z,15.73
2018-04-02T20:11:19.753Z,12.43
2018-04-02T20:13:47.989Z,13.00
2018-04-02T20:16:16.285Z,12.37
2018-04-02T20:18:45.278Z,10.57
2018-04-02T20:21:13.698Z,10.80
2018-04-02T20:23:41.983Z,10.53
2018-04-02T20:26:10.206Z,10.33
2018-04-02T20:28:38.515Z,10.60
2018-04-02T20:31:08.245Z,10.30
2018-04-02T20:33:36.624Z,9.80
2018-04-02T20:36:04.873Z,10.17
2018-04-02T20:38:33.845Z,10.23
2018-04-02T20:41:02.280Z,9.40
2018-04-02T20:43:30.571Z,9.40
2018-04-02T20:45:58.951Z,9.90
2018-04-02T20:48:27.654Z,12.90
2018-04-02T20:50:56.019Z,11.33
2018-04-02T20:53:24.272Z,10.40
2018-04-02T20:55:52.590Z,12.80
2018-04-02T20:58:20.778Z,9.53
2018-04-02T21:00:49.005Z,12.47
2018-04-02T21:03:17.309Z,13.43
2018-04-02T21:05:45.693Z,12.27
2018-04-02T21:08:14.000Z,9.83
2018-04-02T21:10:42.260Z,9.90
2018-04-02T21:13:10.719Z,10.43
2018-04-02T21:15:39.194Z,11.43
2018-04-02T21:18:07.461Z,13.33
2018-04-02T21:20:35.827Z,16.90
2018-04-02T21:23:04.369Z,10.27
2018-04-02T21:25:32.639Z,18.53
2018-04-02T21:28:01.099Z,20.13
2018-04-02T21:30:29.576Z,11.43
2018-04-02T21:32:57.974Z,11.67
2018-04-02T21:35:26.419Z,14.87
2018-04-02T21:37:54.682Z,14.67
2018-04-02T21:40:23.147Z,17.40
2018-04-02T21:42:52.145Z,19.13
2018-04-02T21:45:20.433Z,19.60
2018-04-02T21:47:49.436Z,13.80
2018-04-02T21:50:17.746Z,16.50
2018-04-02T21:52:45.931Z,13.47
2018-04-02T21:55:14.141Z,22.13
2018-04-02T21:57:43.150Z,14.50
2018-04-02T22:00:11.552Z,12.57
2018-04-02T22:02:39.807Z,20.17
2018-04-02T22:05:08.817Z,16.97
2018-04-02T22:07:37.148Z,16.17
2018-04-02T22:10:06.319Z,17.60
2018-04-02T22:12:34.568Z,14.27
2018-04-02T22:15:03.702Z,15.33
2018-04-02T22:17:31.899Z,16.03
2018-04-02T22:20:00.144Z,15.70
2018-04-02T22:22:28.390Z,15.90
2018-04-02T22:24:56.801Z,16.07
2018-04-02T22:27:25.088Z,16.47
2018-04-02T22:29:53.472Z,16.30
2018-04-02T22:32:21.761Z,16.23
2018-04-02T22:34:50.861Z,16.67
2018-04-02T22:37:19.122Z,17.00
2018-04-02T22:39:47.324Z,16.40
2018-04-02T22:42:15.689Z,16.53
2018-04-02T22:44:44.715Z,16.43
2018-04-02T22:47:13.254Z,15.67
2018-04-02T22:49:41.516Z,16.57
2018-04-02T22:52:09.738Z,16.57
2018-04-02T22:54:38.903Z,16.23
2018-04-02T22:57:07.146Z,15.57
2018-04-02T22:59:35.494Z,15.90
2018-04-02T23:02:04.518Z,15.40
2018-04-02T23:04:32.760Z,16.07
2018-04-02T23:07:01.206Z,15.70
2018-04-02T23:09:29.424Z,15.50
2018-04-02T23:11:57.732Z,14.67
2018-04-02T23:14:26.760Z,14.37
2018-04-02T23:16:55.748Z,14.97
2018-04-02T23:19:25.035Z,14.23
2018-04-02T23:21:53.759Z,13.90
2018-04-02T23:24:22.129Z,14.33
2018-04-02T23:26:51.299Z,13.47
2018-04-02T23:29:19.552Z,13.37
2018-04-02T23:31:48.707Z,13.80
2018-04-02T23:34:16.986Z,13.30
2018-04-02T23:36:45.391Z,12.13
2018-04-02T23:39:13.867Z,13.00
2018-04-02T23:41:45.881Z,13.23
2018-04-02T23:44:14.813Z,12.00
2018-04-02T23:46:43.119Z,12.10
2018-04-02T23:49:11.634Z,11.80
2018-04-02T23:51:40.619Z,11.47
2018-04-02T23:54:09.605Z,11.53
2018-04-02T23:56:38.753Z,11.57
2018-04-02T23:59:06.973Z,11.60
